createdAt,value
2018-09-20T00:00:17.846Z,77.9
2018-09-20T00:01:19.205Z,78.9
2018-09-20T00:02:20.575Z,78.8
2018-09-20T00:03:21.942Z,78.3
2018-09-20T00:04:23.307Z,78.6
2018-09-20T00:05:24.672Z,78.3
2018-09-20T00:06:26.040Z,79.0
2018-09-20T00:07:27.397Z,78.8
2018-09-20T00:08:28.761Z,78.7
2018-09-20T00:09:30.118Z,78.8
2018-09-20T00:10:31.473Z,78.9
2018-09-20T00:11:32.836Z,79.4
2018-09-20T00:12:34.196Z,79.2
2018-09-20T00:13:35.562Z,79.2
2018-09-20T00:14:36.932Z,79.1
2018-09-20T00:15:38.287Z,79.1
2018-09-20T00:16:39.646Z,78.6
2018-09-20T00:17:41.010Z,78.7
2018-09-20T00:18:42.365Z,79.1
2018-09-20T00:19:43.722Z,79.1
2018-09-20T00:20:45.082Z,79.3
2018-09-20T00:21:46.472Z,79.1
2018-09-20T00:22:47.832Z,79.4
2018-09-20T00:23:49.191Z,79.4
2018-09-20T00:24:50.546Z,79.3
2018-09-20T00:25:51.907Z,79.3
2018-09-20T00:26:53.268Z,79.3
2018-09-20T00:27:54.621Z,79.5
2018-09-20T00:28:55.984Z,78.8
2018-09-20T00:29:57.345Z,79.7
2018-09-20T00:30:58.705Z,79.5
2018-09-20T00:32:00.061Z,79.4
2018-09-20T00:33:01.422Z,79.3
2018-09-20T00:34:02.789Z,79.3
2018-09-20T00:35:04.150Z,79.8
2018-09-20T00:36:05.510Z,79.8
2018-09-20T00:37:06.888Z,79.8
2018-09-20T00:38:08.245Z,79.7
2018-09-20T00:39:09.632Z,79.8
2018-09-20T00:40:11.001Z,80.1
2018-09-20T00:41:12.361Z,79.8
2018-09-20T00:42:13.715Z,80.2
2018-09-20T00:43:15.076Z,80.4
2018-09-20T00:44:16.446Z,80.4
2018-09-20T00:45:17.797Z,80.3
2018-09-20T00:46:19.161Z,80.4
2018-09-20T00:47:20.521Z,80.2
2018-09-20T00:48:21.881Z,79.8
2018-09-20T00:49:23.239Z,80.3
2018-09-20T00:50:24.606Z,80.2
2018-09-20T00:51:25.962Z,80.3
2018-09-20T00:52:27.323Z,80.7
2018-09-20T00:53:28.677Z,80.9
2018-09-20T00:54:30.042Z,80.9
2018-09-20T00:55:31.410Z,81.0
2018-09-20T00:56:32.775Z,80.8
2018-09-20T00:57:34.135Z,80.8
2018-09-20T00:58:35.496Z,81.0
2018-09-20T00:59:36.864Z,81.2
2018-09-20T01:00:38.215Z,81.3
2018-09-20T01:01:39.580Z,81.0
2018-09-20T01:02:41.415Z,81.4
2018-09-20T01:03:42.781Z,81.2
2018-09-20T01:04:44.152Z,81.4
2018-09-20T01:05:45.505Z,81.4
2018-09-20T01:06:46.865Z,81.2
2018-09-20T01:07:48.226Z,81.5
2018-09-20T01:08:49.593Z,81.4
2018-09-20T01:09:50.945Z,81.4
2018-09-20T01:10:52.306Z,81.0
2018-09-20T01:11:53.674Z,81.9
2018-09-20T01:12:55.037Z,81.5
2018-09-20T01:13:56.396Z,81.1
2018-09-20T01:14:57.767Z,81.3
2018-09-20T01:15:59.126Z,81.1
2018-09-20T01:17:00.485Z,81.1
2018-09-20T01:18:01.840Z,81.3
2018-09-20T01:19:03.206Z,81.3
2018-09-20T01:20:04.557Z,81.2
2018-09-20T01:21:05.921Z,81.1
2018-09-20T01:22:07.277Z,80.8
2018-09-20T01:23:08.652Z,81.3
2018-09-20T01:24:10.012Z,81.4
2018-09-20T01:25:11.383Z,81.4
2018-09-20T01:26:12.738Z,81.0
2018-09-20T01:27:14.102Z,81.3
2018-09-20T01:28:15.470Z,81.4
2018-09-20T01:29:16.834Z,82.0
2018-09-20T01:30:18.198Z,82.2
2018-09-20T01:31:19.563Z,81.9
2018-09-20T01:32:20.922Z,82.0
2018-09-20T01:33:22.302Z,82.2
2018-09-20T01:34:23.668Z,82.1
2018-09-20T01:35:25.077Z,81.9
2018-09-20T01:36:26.386Z,82.1
2018-09-20T01:37:27.756Z,82.9
2018-09-20T01:38:29.112Z,82.7
2018-09-20T01:39:30.476Z,82.5
2018-09-20T01:40:31.847Z,82.4
2018-09-20T01:41:33.206Z,82.3
2018-09-20T01:42:34.577Z,82.6
2018-09-20T01:43:35.937Z,83.0
2018-09-20T01:44:37.292Z,82.9
2018-09-20T01:45:38.663Z,82.5
2018-09-20T01:46:40.016Z,82.5
2018-09-20T01:47:41.397Z,82.6
2018-09-20T01:48:42.762Z,82.5
2018-09-20T01:49:44.122Z,81.7
2018-09-20T01:50:45.483Z,82.5
2018-09-20T01:51:46.852Z,82.5
2018-09-20T01:52:48.206Z,82.6
2018-09-20T01:53:49.557Z,82.3
2018-09-20T01:54:50.930Z,82.9
2018-09-20T01:55:52.293Z,82.6
2018-09-20T01:56:53.657Z,82.5
2018-09-20T01:57:55.021Z,82.5
2018-09-20T01:58:56.377Z,82.5
2018-09-20T01:59:57.742Z,82.9
2018-09-20T02:00:59.088Z,83.2
2018-09-20T02:02:00.457Z,83.4
2018-09-20T02:03:01.827Z,83.3
2018-09-20T02:04:03.248Z,83.3
2018-09-20T02:05:04.614Z,83.1
2018-09-20T02:06:05.981Z,83.1
2018-09-20T02:07:07.352Z,83.1
2018-09-20T02:08:08.713Z,83.2
2018-09-20T02:09:10.084Z,83.2
2018-09-20T02:10:11.441Z,83.2
2018-09-20T02:11:12.801Z,83.2
2018-09-20T02:12:14.159Z,82.9
2018-09-20T02:13:15.523Z,82.9
2018-09-20T02:14:16.887Z,83.7
2018-09-20T02:15:18.249Z,83.6
2018-09-20T02:16:19.608Z,83.5
2018-09-20T02:17:20.962Z,83.4
2018-09-20T02:18:22.323Z,83.3
2018-09-20T02:19:23.677Z,83.5
2018-09-20T02:20:25.036Z,83.5
2018-09-20T02:21:26.392Z,83.6
2018-09-20T02:22:27.753Z,83.7
2018-09-20T02:23:29.106Z,83.7
2018-09-20T02:24:30.472Z,83.9
2018-09-20T02:25:31.827Z,83.9
2018-09-20T02:26:33.195Z,83.8
2018-09-20T02:27:34.558Z,83.6
2018-09-20T02:28:35.911Z,83.5
2018-09-20T02:29:37.267Z,83.9
2018-09-20T02:30:38.630Z,83.8
2018-09-20T02:31:39.989Z,83.7
2018-09-20T02:32:41.348Z,83.9
2018-09-20T02:33:42.699Z,83.9
2018-09-20T02:34:44.062Z,84.0
2018-09-20T02:35:45.423Z,84.3
2018-09-20T02:36:46.779Z,84.2
2018-09-20T02:37:48.128Z,84.7
2018-09-20T02:38:49.503Z,84.3
2018-09-20T02:39:50.872Z,83.9
2018-09-20T02:40:52.237Z,84.2
2018-09-20T02:41:53.597Z,84.0
2018-09-20T02:42:54.959Z,84.4
2018-09-20T02:43:56.314Z,84.3
2018-09-20T02:44:57.683Z,85.1
2018-09-20T02:45:59.029Z,85.0
2018-09-20T02:47:00.404Z,84.9
2018-09-20T02:48:01.761Z,84.7
2018-09-20T02:49:03.127Z,85.0
2018-09-20T02:50:04.496Z,85.0
2018-09-20T02:51:05.853Z,85.0
2018-09-20T02:52:07.209Z,85.0
2018-09-20T02:53:08.572Z,85.1
2018-09-20T02:54:09.921Z,85.1
2018-09-20T02:55:11.564Z,84.7
2018-09-20T02:56:12.937Z,84.7
2018-09-20T02:57:14.286Z,85.0
2018-09-20T02:58:15.643Z,84.8
2018-09-20T02:59:17.002Z,85.0
2018-09-20T03:00:18.373Z,85.0
2018-09-20T03:01:19.723Z,85.2
2018-09-20T03:02:21.082Z,85.0
2018-09-20T03:03:22.444Z,85.0
2018-09-20T03:04:23.809Z,85.0
2018-09-20T03:05:25.171Z,85.2
2018-09-20T03:06:26.545Z,85.1
2018-09-20T03:07:27.888Z,84.8
2018-09-20T03:08:29.259Z,85.1
2018-09-20T03:09:30.624Z,85.2
2018-09-20T03:10:31.979Z,85.3
2018-09-20T03:11:33.330Z,84.8
2018-09-20T03:12:34.693Z,85.6
2018-09-20T03:13:36.056Z,85.6
2018-09-20T03:14:37.417Z,85.4
2018-09-20T03:15:38.780Z,85.4
2018-09-20T03:16:40.146Z,85.5
2018-09-20T03:17:41.803Z,85.6
2018-09-20T03:18:43.171Z,85.4
2018-09-20T03:19:44.532Z,85.5
2018-09-20T03:20:45.899Z,85.3
2018-09-20T03:21:47.271Z,85.5
2018-09-20T03:22:48.638Z,85.5
2018-09-20T03:23:50.005Z,86.0
2018-09-20T03:24:51.361Z,86.0
2018-09-20T03:25:52.735Z,85.8
2018-09-20T03:26:54.088Z,85.7
2018-09-20T03:27:55.452Z,85.6
2018-09-20T03:28:56.813Z,85.9
2018-09-20T03:29:58.167Z,85.8
2018-09-20T03:30:59.529Z,85.7
2018-09-20T03:32:00.888Z,85.9
2018-09-20T03:33:02.244Z,85.8
2018-09-20T03:34:03.607Z,85.6
2018-09-20T03:35:04.957Z,86.1
2018-09-20T03:36:06.318Z,85.9
2018-09-20T03:37:07.674Z,86.0
2018-09-20T03:38:09.041Z,86.3
2018-09-20T03:39:10.416Z,86.3
2018-09-20T03:40:11.774Z,86.0
2018-09-20T03:41:13.137Z,86.2
2018-09-20T03:42:14.497Z,86.0
2018-09-20T03:43:15.852Z,86.3
2018-09-20T03:44:56.906Z,86.4
2018-09-20T03:45:58.267Z,86.2
2018-09-20T03:46:59.628Z,86.7
2018-09-20T03:48:00.974Z,86.5
2018-09-20T03:49:02.344Z,86.5
2018-09-20T03:50:03.711Z,86.4
2018-09-20T03:51:05.062Z,86.2
2018-09-20T03:52:06.424Z,86.5
2018-09-20T03:53:07.793Z,86.5
2018-09-20T03:54:09.149Z,86.2
2018-09-20T03:55:10.619Z,86.4
2018-09-20T03:56:11.974Z,86.4
2018-09-20T03:57:13.329Z,86.4
2018-09-20T03:58:14.695Z,86.4
2018-09-20T03:59:16.049Z,86.4
2018-09-20T04:00:17.418Z,86.5
2018-09-20T04:01:18.774Z,86.6
2018-09-20T04:02:20.133Z,86.4
2018-09-20T04:03:21.498Z,86.2
2018-09-20T04:04:22.848Z,86.5
2018-09-20T04:05:24.215Z,86.7
2018-09-20T04:06:25.574Z,86.8
2018-09-20T04:07:26.938Z,86.4
2018-09-20T04:08:28.299Z,86.6
2018-09-20T04:09:29.691Z,86.6
2018-09-20T04:10:31.028Z,86.8
2018-09-20T04:11:32.382Z,86.6
2018-09-20T04:12:33.764Z,86.6
2018-09-20T04:13:35.121Z,86.9
2018-09-20T04:14:36.472Z,86.6
2018-09-20T04:15:37.818Z,86.8
2018-09-20T04:16:39.209Z,86.8
2018-09-20T04:17:40.563Z,86.4
2018-09-20T04:18:41.933Z,86.7
2018-09-20T04:19:43.333Z,86.8
2018-09-20T04:20:44.733Z,86.4
2018-09-20T04:21:46.078Z,86.4
2018-09-20T04:22:47.443Z,86.7
2018-09-20T04:23:48.804Z,86.8
2018-09-20T04:24:50.168Z,86.6
2018-09-20T04:25:51.564Z,87.0
2018-09-20T04:26:52.918Z,86.6
2018-09-20T04:27:54.284Z,86.7
2018-09-20T04:28:55.659Z,86.5
2018-09-20T04:29:57.022Z,86.6
2018-09-20T04:30:58.380Z,87.0
2018-09-20T04:31:59.741Z,86.8
2018-09-20T04:33:01.098Z,86.9
2018-09-20T04:34:02.490Z,87.4
2018-09-20T04:35:03.858Z,87.2
2018-09-20T04:36:05.251Z,87.1
2018-09-20T04:37:06.619Z,86.9
2018-09-20T04:38:07.999Z,87.0
2018-09-20T04:39:09.359Z,87.1
2018-09-20T04:40:10.719Z,87.4
2018-09-20T04:41:12.118Z,87.1
2018-09-20T04:42:13.470Z,87.4
2018-09-20T04:43:14.830Z,87.5
2018-09-20T04:44:16.184Z,87.1
2018-09-20T04:45:17.550Z,87.0
2018-09-20T04:46:18.916Z,87.4
2018-09-20T04:47:20.289Z,87.5
2018-09-20T04:48:21.645Z,87.1
2018-09-20T04:49:23.018Z,87.5
2018-09-20T04:50:24.377Z,87.2
2018-09-20T04:51:25.759Z,86.8
2018-09-20T04:52:27.148Z,87.0
2018-09-20T04:53:28.574Z,87.2
2018-09-20T04:54:29.881Z,87.0
2018-09-20T04:55:31.241Z,87.2
2018-09-20T04:56:32.609Z,87.1
2018-09-20T04:57:33.966Z,87.3
2018-09-20T04:58:35.323Z,87.3
2018-09-20T04:59:36.692Z,87.1
2018-09-20T05:00:38.049Z,87.2
2018-09-20T05:01:39.408Z,87.2
2018-09-20T05:02:40.775Z,87.4
2018-09-20T05:03:42.150Z,87.7
2018-09-20T05:04:43.509Z,87.8
2018-09-20T05:05:44.880Z,87.4
2018-09-20T05:06:46.250Z,87.5
2018-09-20T05:07:47.647Z,87.3
2018-09-20T05:08:48.981Z,87.7
2018-09-20T05:09:50.349Z,87.3
2018-09-20T05:10:51.715Z,87.8
2018-09-20T05:11:53.078Z,87.8
2018-09-20T05:12:54.443Z,87.5
2018-09-20T05:13:55.809Z,87.4
2018-09-20T05:14:57.166Z,87.5
2018-09-20T05:15:58.526Z,87.8
2018-09-20T05:16:59.896Z,87.7
2018-09-20T05:18:01.264Z,87.7
2018-09-20T05:19:02.619Z,88.0
2018-09-20T05:20:03.996Z,87.6
2018-09-20T05:21:05.398Z,87.6
2018-09-20T05:22:06.754Z,87.7
2018-09-20T05:23:08.128Z,88.0
2018-09-20T05:24:09.484Z,87.6
2018-09-20T05:25:10.841Z,87.7
2018-09-20T05:26:12.209Z,87.7
2018-09-20T05:27:13.575Z,88.0
2018-09-20T05:28:14.939Z,87.7
2018-09-20T05:29:16.303Z,87.8
2018-09-20T05:30:17.664Z,87.8
2018-09-20T05:31:19.028Z,87.7
2018-09-20T05:32:20.400Z,87.7
2018-09-20T05:33:21.767Z,88.0
2018-09-20T05:34:23.128Z,87.9
2018-09-20T05:35:24.532Z,87.7
2018-09-20T05:36:25.887Z,87.7
2018-09-20T05:37:27.230Z,87.5
2018-09-20T05:38:28.602Z,87.7
2018-09-20T05:39:29.955Z,87.7
2018-09-20T05:40:31.320Z,87.7
2018-09-20T05:41:32.678Z,87.8
2018-09-20T05:42:34.044Z,87.9
2018-09-20T05:43:35.488Z,87.6
2018-09-20T05:44:36.786Z,87.5
2018-09-20T05:45:38.150Z,87.5
2018-09-20T05:46:39.520Z,87.8
2018-09-20T05:47:40.873Z,87.8
2018-09-20T05:48:42.253Z,87.7
2018-09-20T05:49:43.630Z,87.7
2018-09-20T05:50:45.004Z,87.6
2018-09-20T05:51:46.353Z,87.6
2018-09-20T05:52:47.725Z,87.5
2018-09-20T05:53:49.083Z,87.4
2018-09-20T05:54:50.454Z,87.6
2018-09-20T05:55:51.813Z,87.2
2018-09-20T05:56:53.180Z,87.2
2018-09-20T05:57:54.546Z,87.2
2018-09-20T05:58:55.908Z,87.2
2018-09-20T05:59:57.274Z,87.2
2018-09-20T06:00:58.633Z,87.0
2018-09-20T06:01:59.989Z,87.3
2018-09-20T06:03:01.350Z,87.3
2018-09-20T06:04:02.715Z,87.4
2018-09-20T06:05:04.081Z,87.2
2018-09-20T06:06:05.445Z,87.5
2018-09-20T06:07:06.810Z,87.6
2018-09-20T06:08:08.183Z,87.4
2018-09-20T06:09:09.640Z,87.4
2018-09-20T06:10:10.999Z,87.4
2018-09-20T06:11:12.365Z,87.4
2018-09-20T06:12:13.724Z,87.4
2018-09-20T06:13:15.100Z,87.4
2018-09-20T06:14:16.460Z,87.8
2018-09-20T06:15:17.828Z,87.2
2018-09-20T06:16:19.171Z,87.6
2018-09-20T06:17:20.546Z,87.2
2018-09-20T06:18:21.916Z,87.3
2018-09-20T06:19:23.272Z,87.0
2018-09-20T06:20:24.639Z,87.0
2018-09-20T06:21:26.009Z,87.0
2018-09-20T06:22:27.366Z,87.0
2018-09-20T06:23:28.738Z,87.4
2018-09-20T06:24:30.116Z,87.3
2018-09-20T06:25:31.488Z,87.4
2018-09-20T06:26:32.846Z,87.5
2018-09-20T06:27:34.272Z,87.4
2018-09-20T06:28:35.585Z,87.4
2018-09-20T06:29:36.949Z,87.3
2018-09-20T06:30:38.319Z,87.2
2018-09-20T06:31:39.679Z,87.1
2018-09-20T06:32:41.044Z,87.2
2018-09-20T06:33:43.634Z,86.8
2018-09-20T06:34:44.994Z,86.7
2018-09-20T06:35:46.352Z,86.7
2018-09-20T06:36:47.750Z,86.7
2018-09-20T06:37:49.089Z,87.1
2018-09-20T06:38:50.445Z,87.1
2018-09-20T06:39:51.816Z,86.9
2018-09-20T06:40:53.209Z,87.1
2018-09-20T06:41:54.546Z,86.4
2018-09-20T06:42:55.913Z,86.4
2018-09-20T06:43:57.286Z,86.7
2018-09-20T06:44:58.661Z,86.7
2018-09-20T06:46:00.020Z,87.0
2018-09-20T06:47:01.386Z,86.6
2018-09-20T06:48:02.746Z,86.4
2018-09-20T06:49:04.104Z,86.3
2018-09-20T06:50:05.484Z,86.0
2018-09-20T06:51:06.858Z,85.3
2018-09-20T06:52:08.226Z,85.7
2018-09-20T06:53:09.590Z,85.2
2018-09-20T06:54:10.956Z,84.8
2018-09-20T06:55:12.319Z,85.2
2018-09-20T06:56:13.689Z,84.4
2018-09-20T06:57:15.075Z,84.4
2018-09-20T06:58:16.437Z,84.6
2018-09-20T06:59:17.804Z,84.3
2018-09-20T07:00:19.170Z,83.7
2018-09-20T07:01:20.537Z,83.6
2018-09-20T07:02:21.900Z,83.8
2018-09-20T07:03:23.337Z,83.3
2018-09-20T07:04:24.640Z,83.2
2018-09-20T07:05:26.031Z,82.8
2018-09-20T07:06:27.400Z,82.5
2018-09-20T07:07:28.769Z,82.7
2018-09-20T07:08:30.130Z,82.8
2018-09-20T07:09:31.506Z,82.3
2018-09-20T07:10:32.872Z,82.6
2018-09-20T07:11:34.242Z,82.2
2018-09-20T07:12:35.609Z,82.3
2018-09-20T07:13:37.011Z,82.4
2018-09-20T07:14:38.341Z,81.5
2018-09-20T07:15:39.715Z,81.5
2018-09-20T07:16:41.077Z,81.5
2018-09-20T07:17:43.126Z,81.5
2018-09-20T07:18:44.496Z,81.3
2018-09-20T07:19:45.870Z,81.3
2018-09-20T07:20:47.242Z,81.7
2018-09-20T07:21:48.616Z,80.9
2018-09-20T07:22:49.990Z,81.0
2018-09-20T07:23:51.352Z,80.5
2018-09-20T07:24:52.736Z,80.2
2018-09-20T07:25:54.147Z,80.2
2018-09-20T07:26:55.526Z,79.4
2018-09-20T07:27:56.897Z,78.9
2018-09-20T07:28:58.280Z,78.8
2018-09-20T07:29:59.645Z,78.9
2018-09-20T07:31:01.021Z,78.6
2018-09-20T07:32:02.407Z,79.2
2018-09-20T07:33:03.772Z,78.1
2018-09-20T07:34:05.146Z,78.1
2018-09-20T07:35:06.515Z,78.0
2018-09-20T07:36:07.877Z,77.1
2018-09-20T07:37:09.257Z,77.0
2018-09-20T07:38:10.637Z,76.7
2018-09-20T07:39:12.015Z,76.3
2018-09-20T07:40:13.390Z,75.5
2018-09-20T07:41:14.751Z,75.8
2018-09-20T07:42:16.122Z,75.8
2018-09-20T07:43:17.506Z,76.0
2018-09-20T07:44:18.912Z,75.0
2018-09-20T07:45:20.293Z,76.0
2018-09-20T07:46:21.671Z,75.6
2018-09-20T07:47:23.035Z,75.8
2018-09-20T07:48:24.412Z,75.6
2018-09-20T07:49:25.792Z,75.5
2018-09-20T07:50:27.160Z,75.9
2018-09-20T07:51:28.532Z,76.2
2018-09-20T07:52:29.896Z,76.3
2018-09-20T07:53:31.269Z,76.1
2018-09-20T07:54:32.647Z,75.5
2018-09-20T07:55:34.020Z,75.5
2018-09-20T07:56:35.416Z,74.7
2018-09-20T07:57:36.734Z,74.5
2018-09-20T07:58:38.120Z,73.8
2018-09-20T07:59:39.480Z,73.4
2018-09-20T08:00:40.851Z,73.0
2018-09-20T08:01:42.286Z,72.4
2018-09-20T08:02:43.614Z,72.2
2018-09-20T08:03:44.993Z,71.5
2018-09-20T08:04:46.369Z,71.7
2018-09-20T08:05:47.740Z,71.5
2018-09-20T08:06:49.115Z,71.2
2018-09-20T08:07:50.484Z,71.1
2018-09-20T08:08:51.860Z,70.8
2018-09-20T08:09:53.225Z,70.3
2018-09-20T08:10:54.613Z,70.3
2018-09-20T08:11:55.982Z,69.5
2018-09-20T08:12:57.359Z,69.4
2018-09-20T08:13:58.736Z,68.9
2018-09-20T08:15:00.117Z,68.9
2018-09-20T08:16:01.492Z,68.9
2018-09-20T08:17:02.857Z,69.1
2018-09-20T08:18:04.260Z,68.8
2018-09-20T08:19:05.646Z,67.9
2018-09-20T08:20:07.023Z,67.7
2018-09-20T08:21:08.401Z,66.9
2018-09-20T08:22:09.781Z,66.8
2018-09-20T08:23:11.160Z,66.4
2018-09-20T08:24:12.550Z,65.7
2018-09-20T08:25:13.910Z,65.6
2018-09-20T08:26:15.288Z,65.6
2018-09-20T08:27:16.663Z,65.3
2018-09-20T08:28:18.047Z,65.1
2018-09-20T08:29:19.431Z,65.1
2018-09-20T08:30:20.810Z,64.2
2018-09-20T08:31:22.187Z,63.9
2018-09-20T08:32:23.570Z,63.9
2018-09-20T08:33:24.928Z,64.0
2018-09-20T08:34:26.313Z,63.4
2018-09-20T08:35:27.686Z,64.0
2018-09-20T08:36:29.087Z,63.5
2018-09-20T08:37:30.526Z,63.8
2018-09-20T08:38:31.830Z,62.9
2018-09-20T08:39:33.211Z,62.6
2018-09-20T08:40:34.586Z,62.6
2018-09-20T08:41:35.966Z,62.3
2018-09-20T08:42:37.340Z,62.6
2018-09-20T08:43:38.720Z,62.2
2018-09-20T08:44:40.090Z,62.0
2018-09-20T08:45:41.475Z,61.4
2018-09-20T08:46:42.846Z,61.2
2018-09-20T08:47:44.223Z,61.0
2018-09-20T08:48:45.607Z,61.0
2018-09-20T08:49:47.000Z,61.1
2018-09-20T08:50:48.376Z,60.5
2018-09-20T08:51:49.752Z,60.5
2018-09-20T08:52:51.122Z,60.4
2018-09-20T08:53:52.507Z,60.5
2018-09-20T08:54:53.872Z,59.7
2018-09-20T08:55:55.262Z,59.6
2018-09-20T08:56:56.673Z,59.6
2018-09-20T08:57:57.976Z,59.4
2018-09-20T08:58:59.357Z,59.0
2018-09-20T09:00:00.737Z,58.4
2018-09-20T09:01:02.111Z,58.7
2018-09-20T09:02:03.487Z,58.7
2018-09-20T09:03:04.865Z,58.3
2018-09-20T09:04:06.241Z,57.9
2018-09-20T09:05:07.616Z,57.9
2018-09-20T09:06:09.013Z,58.3
2018-09-20T09:07:10.385Z,57.8
2018-09-20T09:08:11.770Z,57.5
2018-09-20T09:09:13.155Z,57.7
2018-09-20T09:10:14.529Z,57.2
2018-09-20T09:11:15.910Z,56.9
2018-09-20T09:12:17.283Z,57.4
2018-09-20T09:13:18.675Z,56.3
2018-09-20T09:14:20.058Z,56.4
2018-09-20T09:15:21.438Z,55.9
2018-09-20T09:16:22.823Z,56.2
2018-09-20T09:17:24.211Z,55.9
2018-09-20T09:18:25.595Z,56.0
2018-09-20T09:19:26.965Z,56.6
2018-09-20T09:20:28.352Z,55.8
2018-09-20T09:21:29.727Z,56.0
2018-09-20T09:22:31.112Z,55.6
2018-09-20T09:23:32.499Z,55.6
2018-09-20T09:24:33.875Z,55.8
2018-09-20T09:25:35.262Z,55.3
2018-09-20T09:26:36.639Z,55.7
2018-09-20T09:27:38.025Z,55.0
2018-09-20T09:28:39.459Z,55.4
2018-09-20T09:29:40.790Z,55.7
2018-09-20T09:30:42.175Z,55.6
2018-09-20T09:31:43.559Z,55.5
2018-09-20T09:32:44.932Z,55.1
2018-09-20T09:33:46.322Z,55.4
2018-09-20T09:34:47.706Z,54.9
2018-09-20T09:35:49.103Z,54.7
2018-09-20T09:36:50.481Z,54.4
2018-09-20T09:37:51.866Z,54.2
2018-09-20T09:38:53.256Z,54.3
2018-09-20T09:39:54.638Z,54.5
2018-09-20T09:40:56.016Z,54.0
2018-09-20T09:41:57.405Z,53.7
2018-09-20T09:42:58.782Z,54.1
2018-09-20T09:44:00.156Z,53.8
2018-09-20T09:45:41.023Z,53.0
2018-09-20T09:46:42.403Z,53.1
2018-09-20T09:47:43.780Z,53.1
2018-09-20T09:48:45.157Z,53.0
2018-09-20T09:49:46.537Z,53.0
2018-09-20T09:50:47.926Z,53.0
2018-09-20T09:51:49.306Z,52.9
2018-09-20T09:52:50.681Z,52.1
2018-09-20T09:53:52.062Z,52.3
2018-09-20T09:54:53.518Z,51.6
2018-09-20T09:55:54.853Z,51.6
2018-09-20T09:56:56.241Z,51.5
2018-09-20T09:57:57.623Z,51.3
2018-09-20T09:58:59.006Z,51.7
2018-09-20T10:00:00.384Z,51.5
2018-09-20T10:01:01.761Z,51.8
2018-09-20T10:02:03.137Z,50.9
2018-09-20T10:03:04.546Z,51.1
2018-09-20T10:04:05.916Z,51.3
2018-09-20T10:05:07.301Z,51.1
2018-09-20T10:06:08.686Z,51.9
2018-09-20T10:07:10.074Z,51.6
2018-09-20T10:08:11.461Z,50.9
2018-09-20T10:09:12.833Z,50.5
2018-09-20T10:10:14.214Z,50.6
2018-09-20T10:11:15.611Z,50.7
2018-09-20T10:12:16.988Z,50.4
2018-09-20T10:13:18.439Z,50.3
2018-09-20T10:14:19.713Z,50.0
2018-09-20T10:15:21.092Z,49.2
2018-09-20T10:16:22.473Z,49.0
2018-09-20T10:17:23.886Z,48.9
2018-09-20T10:18:25.278Z,48.9
2018-09-20T10:19:26.651Z,49.0
2018-09-20T10:20:28.047Z,49.3
2018-09-20T10:21:29.425Z,49.0
2018-09-20T10:22:30.807Z,49.2
2018-09-20T10:23:32.192Z,49.5
2018-09-20T10:24:33.585Z,50.1
2018-09-20T10:25:34.967Z,50.2
2018-09-20T10:26:36.340Z,49.5
2018-09-20T10:27:37.728Z,49.3
2018-09-20T10:28:39.114Z,49.0
2018-09-20T10:29:40.499Z,48.8
2018-09-20T10:30:41.876Z,48.7
2018-09-20T10:31:43.262Z,48.4
2018-09-20T10:32:44.636Z,48.5
2018-09-20T10:33:46.053Z,48.9
2018-09-20T10:34:47.403Z,48.7
2018-09-20T10:35:48.786Z,48.7
2018-09-20T10:36:50.167Z,48.8
2018-09-20T10:37:51.549Z,48.9
2018-09-20T10:38:52.941Z,49.0
2018-09-20T10:39:54.324Z,48.8
2018-09-20T10:40:55.715Z,48.5
2018-09-20T10:41:57.093Z,48.3
2018-09-20T10:42:58.474Z,49.0
2018-09-20T10:43:59.859Z,48.5
2018-09-20T10:45:01.245Z,48.1
2018-09-20T10:46:02.642Z,47.7
2018-09-20T10:47:04.075Z,47.8
2018-09-20T10:48:05.412Z,47.9
2018-09-20T10:49:06.822Z,47.8
2018-09-20T10:50:08.197Z,47.7
2018-09-20T10:51:09.579Z,48.0
2018-09-20T10:52:10.958Z,47.0
2018-09-20T10:53:12.362Z,46.9
2018-09-20T10:54:13.739Z,46.3
2018-09-20T10:55:15.192Z,46.2
2018-09-20T10:56:16.469Z,46.7
2018-09-20T10:57:17.867Z,46.5
2018-09-20T10:58:19.269Z,46.2
2018-09-20T10:59:20.658Z,45.7
2018-09-20T11:00:22.024Z,46.0
2018-09-20T11:01:23.436Z,45.8
2018-09-20T11:02:24.825Z,45.6
2018-09-20T11:03:26.209Z,45.6
2018-09-20T11:04:27.593Z,45.7
2018-09-20T11:05:28.965Z,45.8
2018-09-20T11:06:30.348Z,45.8
2018-09-20T11:07:31.732Z,45.7
2018-09-20T11:08:33.124Z,45.4
2018-09-20T11:09:34.507Z,45.5
2018-09-20T11:10:35.938Z,45.6
2018-09-20T11:11:37.277Z,45.5
2018-09-20T11:12:38.657Z,45.2
2018-09-20T11:13:40.034Z,44.9
2018-09-20T11:14:41.434Z,44.9
2018-09-20T11:15:42.822Z,44.8
2018-09-20T11:16:44.199Z,44.8
2018-09-20T11:17:45.583Z,44.8
2018-09-20T11:18:46.987Z,44.7
2018-09-20T11:19:48.554Z,44.8
2018-09-20T11:20:49.953Z,44.5
2018-09-20T11:21:51.333Z,44.5
2018-09-20T11:22:52.719Z,44.6
2018-09-20T11:23:54.997Z,44.7
2018-09-20T11:24:56.367Z,44.8
2018-09-20T11:25:57.803Z,44.4
2018-09-20T11:26:59.115Z,44.4
2018-09-20T11:28:00.494Z,44.4
2018-09-20T11:29:01.894Z,44.4
2018-09-20T11:30:03.282Z,44.5
2018-09-20T11:31:04.664Z,44.4
2018-09-20T11:32:06.050Z,44.0
2018-09-20T11:33:07.435Z,43.9
2018-09-20T11:34:08.828Z,43.7
2018-09-20T11:35:10.212Z,43.8
2018-09-20T11:36:11.655Z,43.4
2018-09-20T11:37:12.973Z,43.2
2018-09-20T11:38:14.358Z,43.3
2018-09-20T11:39:15.743Z,43.2
2018-09-20T11:40:17.129Z,43.0
2018-09-20T11:41:18.507Z,42.6
2018-09-20T11:42:19.888Z,42.7
2018-09-20T11:43:21.264Z,42.9
2018-09-20T11:44:22.648Z,43.0
2018-09-20T11:45:24.801Z,42.8
2018-09-20T11:46:26.206Z,42.8
2018-09-20T11:47:27.591Z,42.7
2018-09-20T11:48:28.983Z,42.8
2018-09-20T11:49:30.360Z,42.7
2018-09-20T11:50:31.750Z,43.4
2018-09-20T11:51:33.120Z,42.8
2018-09-20T11:52:34.510Z,42.0
2018-09-20T11:53:35.912Z,41.8
2018-09-20T11:54:37.290Z,41.9
2018-09-20T11:55:38.680Z,41.9
2018-09-20T11:56:40.047Z,42.2
2018-09-20T11:57:41.445Z,41.9
2018-09-20T11:58:42.819Z,41.8
2018-09-20T11:59:44.202Z,41.7
2018-09-20T12:00:45.579Z,41.1
2018-09-20T12:01:47.026Z,41.2
2018-09-20T12:02:48.349Z,40.9
2018-09-20T12:03:49.729Z,40.5
2018-09-20T12:04:51.109Z,40.6
2018-09-20T12:05:52.503Z,40.5
2018-09-20T12:06:53.910Z,40.6
2018-09-20T12:07:55.289Z,40.5
2018-09-20T12:08:56.664Z,40.5
2018-09-20T12:09:58.062Z,40.6
2018-09-20T12:10:59.457Z,40.4
2018-09-20T12:12:00.833Z,40.1
2018-09-20T12:13:02.220Z,40.1
2018-09-20T12:14:03.595Z,39.7
2018-09-20T12:15:04.989Z,39.7
2018-09-20T12:16:06.360Z,39.2
2018-09-20T12:17:07.740Z,38.5
2018-09-20T12:18:09.142Z,38.7
2018-09-20T12:19:10.528Z,38.1
2018-09-20T12:20:11.899Z,38.1
2018-09-20T12:21:13.285Z,37.8
2018-09-20T12:22:14.679Z,38.0
2018-09-20T12:23:16.093Z,37.8
2018-09-20T12:24:17.469Z,37.8
2018-09-20T12:25:18.850Z,37.5
2018-09-20T12:26:20.236Z,37.2
2018-09-20T12:27:21.617Z,36.8
2018-09-20T12:28:22.999Z,36.9
2018-09-20T12:29:24.388Z,36.2
2018-09-20T12:30:25.774Z,36.1
2018-09-20T12:31:27.181Z,35.9
2018-09-20T12:32:28.533Z,35.8
2018-09-20T12:33:29.913Z,35.8
2018-09-20T12:34:31.297Z,35.8
2018-09-20T12:35:32.754Z,35.8
2018-09-20T12:36:34.063Z,35.9
2018-09-20T12:37:35.482Z,36.2
2018-09-20T12:38:36.888Z,36.1
2018-09-20T12:39:38.254Z,35.9
2018-09-20T12:40:39.638Z,35.9
2018-09-20T12:41:41.014Z,36.2
2018-09-20T12:42:42.416Z,36.2
2018-09-20T12:43:43.774Z,36.2
2018-09-20T12:44:45.159Z,36.4
2018-09-20T12:45:46.542Z,36.4
2018-09-20T12:46:47.913Z,36.4
2018-09-20T12:47:49.300Z,36.4
2018-09-20T12:48:50.697Z,36.1
2018-09-20T12:49:52.073Z,36.2
2018-09-20T12:50:53.497Z,36.1
2018-09-20T12:51:54.880Z,36.2
2018-09-20T12:52:56.265Z,36.2
2018-09-20T12:53:57.649Z,36.1
2018-09-20T12:54:59.033Z,37.0
2018-09-20T12:56:00.414Z,36.8
2018-09-20T12:57:01.795Z,36.9
2018-09-20T12:58:03.175Z,36.9
2018-09-20T12:59:04.560Z,36.8
2018-09-20T13:00:05.943Z,37.0
2018-09-20T13:01:07.324Z,37.0
2018-09-20T13:02:08.714Z,37.1
2018-09-20T13:03:10.084Z,37.0
2018-09-20T13:04:11.463Z,37.0
2018-09-20T13:05:12.838Z,37.0
2018-09-20T13:06:14.229Z,36.9
2018-09-20T13:07:15.602Z,37.0
2018-09-20T13:08:16.998Z,37.2
2018-09-20T13:09:18.373Z,37.1
2018-09-20T13:10:19.760Z,37.2
2018-09-20T13:11:21.154Z,37.2
2018-09-20T13:12:22.528Z,37.1
2018-09-20T13:13:23.910Z,37.6
2018-09-20T13:14:25.275Z,37.1
2018-09-20T13:15:26.665Z,37.5
2018-09-20T13:16:28.057Z,37.1
2018-09-20T13:17:29.438Z,37.2
2018-09-20T13:18:30.830Z,37.1
2018-09-20T13:19:32.215Z,37.3
2018-09-20T13:20:33.605Z,37.1
2018-09-20T13:21:34.985Z,37.3
2018-09-20T13:22:36.363Z,37.6
2018-09-20T13:23:37.735Z,37.6
2018-09-20T13:24:39.143Z,37.6
2018-09-20T13:25:40.490Z,37.7
2018-09-20T13:26:41.871Z,37.6
2018-09-20T13:27:43.264Z,37.5
2018-09-20T13:28:44.634Z,37.7
2018-09-20T13:29:46.013Z,37.6
2018-09-20T13:30:47.379Z,37.5
2018-09-20T13:31:48.792Z,37.8
2018-09-20T13:32:50.097Z,37.6
2018-09-20T13:33:51.492Z,37.6
2018-09-20T13:34:52.870Z,37.6
2018-09-20T13:35:54.250Z,37.8
2018-09-20T13:36:55.638Z,37.8
2018-09-20T13:37:57.018Z,37.9